createdAt,value
2022-08-17T00:00:42.699Z,6.45
2022-08-17T00:03:21.044Z,7.15
2022-08-17T00:05:55.370Z,6.10
2022-08-17T00:08:27.893Z,6.25
2022-08-17T00:10:58.540Z,6.57
2022-08-17T00:13:30.899Z,6.45
2022-08-17T00:16:04.632Z,7.30
2022-08-17T00:19:01.433Z,6.25
2022-08-17T00:21:25.393Z,6.55
2022-08-17T00:23:55.631Z,6.55
2022-08-17T00:26:35.836Z,6.68
2022-08-17T00:29:20.062Z,7.60
2022-08-17T00:31:51.600Z,6.63
2022-08-17T00:34:20.997Z,6.57
2022-08-17T00:36:50.214Z,6.35
2022-08-17T00:39:19.528Z,6.03
2022-08-17T00:41:48.748Z,7.18
2022-08-17T00:44:17.987Z,7.20
2022-08-17T00:46:48.124Z,6.93
2022-08-17T00:49:19.817Z,6.60
2022-08-17T00:51:54.033Z,6.68
2022-08-17T00:54:28.492Z,6.72
2022-08-17T00:57:01.138Z,6.30
2022-08-17T00:59:39.352Z,7.18
2022-08-17T01:02:13.340Z,7.03
2022-08-17T01:04:46.385Z,7.10
2022-08-17T01:07:16.401Z,6.28
2022-08-17T01:09:45.704Z,6.78
2022-08-17T01:12:14.954Z,6.35
2022-08-17T01:14:44.282Z,6.70
2022-08-17T01:17:13.709Z,6.43
2022-08-17T01:19:45.474Z,7.22
2022-08-17T01:22:24.093Z,6.60
2022-08-17T01:24:59.302Z,6.40
2022-08-17T01:27:29.465Z,6.72
2022-08-17T01:30:02.835Z,6.70
2022-08-17T01:32:32.613Z,6.35
2022-08-17T01:35:02.028Z,6.45
2022-08-17T01:37:35.877Z,6.05
2022-08-17T01:40:14.156Z,6.65
2022-08-17T01:42:48.118Z,7.32
2022-08-17T01:45:23.175Z,6.28
2022-08-17T01:47:53.164Z,6.30
2022-08-17T01:50:25.684Z,6.72
2022-08-17T01:52:59.619Z,6.80
2022-08-17T01:55:33.527Z,6.50
2022-08-17T01:58:03.046Z,6.55
2022-08-17T02:00:59.654Z,7.03
2022-08-17T02:03:21.560Z,6.97
2022-08-17T02:05:51.384Z,6.97
2022-08-17T02:08:39.180Z,6.68
2022-08-17T02:11:16.788Z,6.47
2022-08-17T02:13:47.280Z,6.68
2022-08-17T02:16:24.288Z,6.32
2022-08-17T02:18:53.543Z,6.72
2022-08-17T02:21:22.704Z,6.03
2022-08-17T02:23:53.281Z,6.88
2022-08-17T02:26:25.708Z,6.03
2022-08-17T02:28:55.882Z,6.20
2022-08-17T02:31:25.164Z,6.50
2022-08-17T02:33:56.866Z,7.20
2022-08-17T02:36:35.288Z,6.50
2022-08-17T02:39:07.713Z,6.85
2022-08-17T02:41:37.799Z,6.75
2022-08-17T02:44:07.550Z,6.28
2022-08-17T02:46:37.002Z,6.40
2022-08-17T02:49:06.970Z,6.50
2022-08-17T02:51:36.587Z,7.22
2022-08-17T02:54:39.149Z,6.60
2022-08-17T02:56:56.870Z,6.35
2022-08-17T02:59:26.377Z,6.70
2022-08-17T03:01:55.871Z,6.53
2022-08-17T03:04:25.187Z,6.28
2022-08-17T03:06:54.375Z,6.50
2022-08-17T03:09:25.005Z,6.50
2022-08-17T03:11:55.826Z,6.22
2022-08-17T03:14:26.103Z,6.15
2022-08-17T03:16:55.780Z,6.53
2022-08-17T03:19:24.951Z,5.80
2022-08-17T03:21:55.419Z,6.45
2022-08-17T03:24:28.817Z,6.53
2022-08-17T03:26:58.370Z,6.65
2022-08-17T03:29:27.517Z,7.05
2022-08-17T03:31:56.638Z,6.45
2022-08-17T03:34:25.961Z,6.68
2022-08-17T03:36:55.383Z,6.50
2022-08-17T03:39:26.045Z,6.70
2022-08-17T03:41:56.619Z,6.45
2022-08-17T03:44:25.785Z,6.53
2022-08-17T03:47:12.431Z,6.82
2022-08-17T03:49:59.366Z,5.93
2022-08-17T03:52:46.331Z,6.45
2022-08-17T03:55:39.960Z,6.88
2022-08-17T03:58:12.035Z,7.15
2022-08-17T04:00:45.852Z,6.80
2022-08-17T04:03:15.808Z,6.78
2022-08-17T04:05:45.254Z,6.70
2022-08-17T04:08:14.663Z,6.72
2022-08-17T04:10:45.467Z,6.88
2022-08-17T04:13:14.814Z,5.95
2022-08-17T04:15:44.065Z,6.80
2022-08-17T04:18:13.268Z,6.82
2022-08-17T04:20:42.498Z,6.90
2022-08-17T04:23:14.989Z,6.10
2022-08-17T04:25:48.636Z,6.10
2022-08-17T04:28:18.246Z,6.07
2022-08-17T04:30:48.357Z,5.68
2022-08-17T04:33:19.630Z,5.88
2022-08-17T04:35:51.118Z,5.68
2022-08-17T04:38:23.482Z,6.03
2022-08-17T04:41:12.330Z,6.03
2022-08-17T04:43:43.117Z,6.55
2022-08-17T04:46:14.717Z,6.55
2022-08-17T04:48:46.289Z,6.95
2022-08-17T04:51:17.803Z,6.28
2022-08-17T04:53:54.022Z,6.20
2022-08-17T04:56:27.301Z,6.68
2022-08-17T04:58:58.869Z,6.10
2022-08-17T05:01:31.358Z,6.25
2022-08-17T05:04:33.646Z,6.40
2022-08-17T05:06:55.858Z,5.90
2022-08-17T05:09:25.197Z,6.72
2022-08-17T05:11:56.210Z,6.65
2022-08-17T05:14:32.966Z,6.63
2022-08-17T05:17:07.327Z,7.13
2022-08-17T05:19:41.361Z,6.60
2022-08-17T05:22:10.546Z,6.85
2022-08-17T05:24:43.515Z,6.80
2022-08-17T05:27:24.585Z,6.60
2022-08-17T05:29:58.603Z,5.78
2022-08-17T05:32:39.626Z,6.00
2022-08-17T05:35:10.650Z,6.38
2022-08-17T05:37:40.007Z,6.00
2022-08-17T05:40:10.841Z,6.50
2022-08-17T05:42:41.923Z,6.82
2022-08-17T05:45:15.873Z,6.45
2022-08-17T05:47:53.014Z,6.10
2022-08-17T05:50:27.135Z,6.25
2022-08-17T05:53:07.335Z,6.70
2022-08-17T05:55:42.834Z,6.18
2022-08-17T05:58:26.551Z,6.18
2022-08-17T06:01:04.661Z,6.10
2022-08-17T06:03:43.115Z,6.22
2022-08-17T06:06:25.401Z,6.05
2022-08-17T06:09:12.281Z,6.45
2022-08-17T06:11:53.658Z,6.88
2022-08-17T06:14:46.159Z,6.47
2022-08-17T06:17:19.362Z,5.82
2022-08-17T06:19:54.836Z,6.50
2022-08-17T06:22:27.834Z,6.78
2022-08-17T06:25:02.382Z,6.18
2022-08-17T06:27:36.985Z,6.78
2022-08-17T06:30:12.727Z,6.97
2022-08-17T06:32:44.977Z,6.18
2022-08-17T06:35:18.538Z,6.65
2022-08-17T06:38:02.165Z,6.93
2022-08-17T06:40:51.691Z,6.95
2022-08-17T06:43:35.155Z,6.90
2022-08-17T06:46:11.699Z,6.60
2022-08-17T06:48:47.427Z,7.50
2022-08-17T06:51:23.483Z,7.63
2022-08-17T06:54:00.926Z,6.95
2022-08-17T06:56:54.277Z,7.15
2022-08-17T06:59:47.155Z,6.40
2022-08-17T07:02:51.172Z,6.80
2022-08-17T07:05:25.434Z,6.60
2022-08-17T07:08:04.866Z,7.20
2022-08-17T07:10:40.383Z,6.70
2022-08-17T07:13:29.608Z,7.15
2022-08-17T07:16:09.249Z,7.93
2022-08-17T07:18:39.997Z,7.30
2022-08-17T07:21:31.096Z,7.32
2022-08-17T07:24:11.611Z,7.43
2022-08-17T07:27:14.524Z,6.97
2022-08-17T07:29:49.620Z,7.38
2022-08-17T07:32:23.022Z,8.10
2022-08-17T07:35:11.527Z,8.05
2022-08-17T07:37:42.856Z,7.60
2022-08-17T07:40:36.143Z,7.50
2022-08-17T07:43:21.817Z,7.65
2022-08-17T07:46:28.950Z,7.63
2022-08-17T07:49:00.105Z,7.15
2022-08-17T07:51:34.233Z,7.13
2022-08-17T07:54:14.552Z,7.00
2022-08-17T07:56:47.936Z,6.88
2022-08-17T07:59:23.105Z,7.13
2022-08-17T08:02:16.274Z,6.53
2022-08-17T08:05:00.168Z,7.25
2022-08-17T08:07:36.933Z,6.97
2022-08-17T08:10:11.024Z,6.85
2022-08-17T08:12:43.931Z,6.47
2022-08-17T08:15:19.077Z,7.05
2022-08-17T08:17:53.442Z,6.85
2022-08-17T08:20:51.379Z,6.30
2022-08-17T08:23:30.379Z,7.07
2022-08-17T08:26:15.223Z,7.07
2022-08-17T08:28:53.867Z,7.07
2022-08-17T08:31:31.641Z,7.32
2022-08-17T08:34:59.103Z,6.97
2022-08-17T08:37:17.617Z,6.97
2022-08-17T08:39:59.412Z,6.82
2022-08-17T08:42:38.799Z,6.85
2022-08-17T08:45:15.041Z,7.32
2022-08-17T08:48:23.014Z,7.60
2022-08-17T08:51:08.641Z,7.65
2022-08-17T08:53:50.293Z,7.03
2022-08-17T08:56:29.658Z,6.72
2022-08-17T08:59:07.391Z,7.00
2022-08-17T09:01:49.265Z,7.22
2022-08-17T09:05:10.776Z,7.43
2022-08-17T09:07:43.709Z,7.90
2022-08-17T09:10:22.498Z,8.70
2022-08-17T09:13:10.254Z,8.55
2022-08-17T09:15:45.730Z,8.10
2022-08-17T09:19:03.455Z,7.60
2022-08-17T09:21:18.511Z,7.78
2022-08-17T09:24:00.135Z,7.57
2022-08-17T09:26:35.734Z,7.47
2022-08-17T09:29:11.386Z,8.45
2022-08-17T09:31:49.664Z,8.25
2022-08-17T09:34:31.990Z,8.23
2022-08-17T09:37:12.501Z,7.68
2022-08-17T09:39:49.643Z,8.10
2022-08-17T09:42:24.981Z,8.70
2022-08-17T09:45:04.050Z,7.75
2022-08-17T09:47:42.384Z,8.73
2022-08-17T09:50:17.880Z,8.45
2022-08-17T09:53:07.253Z,7.90
2022-08-17T09:55:49.398Z,7.70
2022-08-17T09:58:29.185Z,8.85
2022-08-17T10:01:05.457Z,8.18
2022-08-17T10:03:49.177Z,8.80
2022-08-17T10:06:25.866Z,8.20
2022-08-17T10:09:06.747Z,7.70
2022-08-17T10:11:58.521Z,8.15
2022-08-17T10:14:36.317Z,8.88
2022-08-17T10:17:15.615Z,8.88
2022-08-17T10:19:53.906Z,8.40
2022-08-17T10:22:51.198Z,9.10
2022-08-17T10:25:54.612Z,8.52
2022-08-17T10:28:30.257Z,8.35
2022-08-17T10:31:33.822Z,8.75
2022-08-17T10:34:19.481Z,8.48
2022-08-17T10:36:57.031Z,7.82
2022-08-17T10:39:51.873Z,9.32
2022-08-17T10:42:32.260Z,7.93
2022-08-17T10:45:08.276Z,8.45
2022-08-17T10:48:04.318Z,7.50
2022-08-17T10:50:49.855Z,8.38
2022-08-17T10:53:53.980Z,8.27
2022-08-17T10:56:26.379Z,7.43
2022-08-17T10:58:58.231Z,7.45
2022-08-17T11:01:58.468Z,8.05
2022-08-17T11:04:46.261Z,7.40
2022-08-17T11:07:25.934Z,7.47
2022-08-17T11:10:10.231Z,7.40
2022-08-17T11:12:48.032Z,7.43
2022-08-17T11:15:41.475Z,7.63
2022-08-17T11:18:34.464Z,7.50
2022-08-17T11:21:35.012Z,7.43
2022-08-17T11:24:19.466Z,7.40
2022-08-17T11:27:12.177Z,7.32
2022-08-17T11:29:58.122Z,7.00
2022-08-17T11:32:47.718Z,7.13
2022-08-17T11:35:36.296Z,7.20
2022-08-17T11:38:19.976Z,7.32
2022-08-17T11:41:20.130Z,7.70
2022-08-17T11:44:15.533Z,7.03
2022-08-17T11:47:18.003Z,7.38
2022-08-17T11:50:27.667Z,6.80
2022-08-17T11:52:57.450Z,6.97
2022-08-17T11:56:06.707Z,7.40
2022-08-17T11:58:41.837Z,6.72
2022-08-17T12:01:16.048Z,7.47
2022-08-17T12:03:58.798Z,7.03
2022-08-17T12:06:48.135Z,6.45
2022-08-17T12:09:21.593Z,6.70
2022-08-17T12:12:13.264Z,7.25
2022-08-17T12:17:42.929Z,6.35
2022-08-17T12:20:17.343Z,6.38
2022-08-17T12:22:56.680Z,6.38
2022-08-17T12:25:33.403Z,6.07
2022-08-17T12:28:07.729Z,5.95
2022-08-17T12:30:39.029Z,6.03
2022-08-17T12:33:25.654Z,6.30
2022-08-17T12:36:00.396Z,6.63
2022-08-17T12:38:33.270Z,5.80
2022-08-17T12:41:25.727Z,5.93
2022-08-17T12:44:02.553Z,6.15
2022-08-17T12:46:36.075Z,5.78
2022-08-17T12:49:24.205Z,5.45
2022-08-17T12:51:58.831Z,5.97
2022-08-17T12:54:33.799Z,5.63
2022-08-17T12:57:12.137Z,5.15
2022-08-17T12:59:46.310Z,5.10
2022-08-17T13:02:30.666Z,5.65
2022-08-17T13:05:02.469Z,5.47
2022-08-17T13:07:36.808Z,5.45
2022-08-17T13:10:06.950Z,6.07
2022-08-17T13:12:37.685Z,5.07
2022-08-17T13:15:10.668Z,5.78
2022-08-17T13:17:40.011Z,5.50
2022-08-17T13:20:16.379Z,5.70
2022-08-17T13:22:55.099Z,5.40
2022-08-17T13:25:25.071Z,6.03
2022-08-17T13:27:56.213Z,5.47
2022-08-17T13:30:33.351Z,5.57
2022-08-17T13:33:04.896Z,5.55
2022-08-17T13:35:50.537Z,5.90
2022-08-17T13:38:40.713Z,5.25
2022-08-17T13:41:29.993Z,5.20
2022-08-17T13:43:59.351Z,5.35
2022-08-17T13:46:32.418Z,6.03
2022-08-17T13:49:04.798Z,5.90
2022-08-17T13:51:42.955Z,5.82
2022-08-17T13:54:32.318Z,5.95
2022-08-17T13:57:04.340Z,6.30
2022-08-17T13:59:54.749Z,5.75
2022-08-17T14:02:28.865Z,6.00
2022-08-17T14:05:00.756Z,7.13
2022-08-17T14:07:35.768Z,6.30
2022-08-17T14:10:12.543Z,6.35
2022-08-17T14:12:44.130Z,5.63
2022-08-17T14:15:15.775Z,6.03
2022-08-17T14:17:46.765Z,7.13
2022-08-17T14:20:17.150Z,7.65
2022-08-17T14:22:49.656Z,7.28
2022-08-17T14:25:22.603Z,6.85
2022-08-17T14:27:53.960Z,7.72
2022-08-17T14:30:25.934Z,7.57
2022-08-17T14:32:59.864Z,7.50
2022-08-17T14:35:30.082Z,6.88
2022-08-17T14:38:00.404Z,7.40
2022-08-17T14:40:30.447Z,6.97
2022-08-17T14:42:59.933Z,7.47
2022-08-17T14:45:31.752Z,6.80
2022-08-17T14:48:07.909Z,7.13
2022-08-17T14:50:39.033Z,6.80
2022-08-17T14:53:10.761Z,6.80
2022-08-17T14:55:40.897Z,7.00
2022-08-17T14:58:10.683Z,7.28
2022-08-17T15:00:43.232Z,7.50
2022-08-17T15:03:14.648Z,7.00
2022-08-17T15:05:45.146Z,7.32
2022-08-17T15:08:16.746Z,7.78
2022-08-17T15:10:46.091Z,7.03
2022-08-17T15:13:19.756Z,7.85
2022-08-17T15:15:50.564Z,7.85
2022-08-17T15:18:21.389Z,7.03
2022-08-17T15:20:51.528Z,7.05
2022-08-17T15:23:24.195Z,7.13
2022-08-17T15:25:54.891Z,6.68
2022-08-17T15:28:25.183Z,7.82
2022-08-17T15:30:55.461Z,7.30
2022-08-17T15:33:30.308Z,6.85
2022-08-17T15:36:01.589Z,6.47
2022-08-17T15:38:34.023Z,7.38
2022-08-17T15:41:04.265Z,6.97
2022-08-17T15:43:33.918Z,6.43
2022-08-17T15:46:10.699Z,6.75
2022-08-17T15:48:43.565Z,6.90
2022-08-17T15:51:18.209Z,7.40
2022-08-17T15:53:49.920Z,6.70
2022-08-17T15:56:20.084Z,6.97
2022-08-17T15:58:50.532Z,7.03
2022-08-17T16:03:01.217Z,6.85
2022-08-17T16:04:29.661Z,6.43
2022-08-17T16:07:01.252Z,6.18
2022-08-17T16:09:30.549Z,6.40
2022-08-17T16:12:09.235Z,6.07
2022-08-17T16:14:38.676Z,6.15
2022-08-17T16:17:40.310Z,6.13
2022-08-17T16:20:00.520Z,6.22
2022-08-17T16:22:36.822Z,6.30
2022-08-17T16:25:09.140Z,6.72
2022-08-17T16:27:38.700Z,5.93
2022-08-17T16:30:14.986Z,6.43
2022-08-17T16:32:46.888Z,6.15
2022-08-17T16:35:18.389Z,6.40
2022-08-17T16:37:48.585Z,6.75
2022-08-17T16:40:18.719Z,6.22
2022-08-17T16:42:49.825Z,6.25
2022-08-17T16:45:21.541Z,6.05
2022-08-17T16:47:51.463Z,5.95
2022-08-17T16:50:26.186Z,6.13
2022-08-17T16:53:04.806Z,6.20
2022-08-17T16:55:35.843Z,5.82
2022-08-17T16:58:05.521Z,5.70
2022-08-17T17:00:35.032Z,6.05
2022-08-17T17:03:19.068Z,5.53
2022-08-17T17:06:08.440Z,5.50
2022-08-17T17:08:44.756Z,6.03
2022-08-17T17:11:19.580Z,5.55
2022-08-17T17:13:54.334Z,5.68
2022-08-17T17:16:32.115Z,5.40
2022-08-17T17:19:10.685Z,5.40
2022-08-17T17:21:48.235Z,5.00
2022-08-17T17:24:23.468Z,4.90
2022-08-17T17:27:15.499Z,5.47
2022-08-17T17:29:59.748Z,5.07
2022-08-17T17:32:37.961Z,5.22
2022-08-17T17:35:12.188Z,4.85
2022-08-17T17:37:44.743Z,4.57
2022-08-17T17:40:21.752Z,4.75
2022-08-17T17:42:55.230Z,4.60
2022-08-17T17:45:26.525Z,4.32
2022-08-17T17:47:55.837Z,4.47
2022-08-17T17:50:33.636Z,4.47
2022-08-17T17:53:09.715Z,4.20
2022-08-17T17:55:47.928Z,4.00
2022-08-17T17:58:35.522Z,4.28
2022-08-17T18:01:33.621Z,4.32
2022-08-17T18:04:22.615Z,4.63
2022-08-17T18:07:03.746Z,4.10
2022-08-17T18:10:01.094Z,3.88
2022-08-17T18:12:37.692Z,4.03
2022-08-17T18:15:23.263Z,3.50
2022-08-17T18:18:28.931Z,3.53
2022-08-17T18:21:05.402Z,3.80
2022-08-17T18:23:35.605Z,4.22
2022-08-17T18:26:06.486Z,3.50
2022-08-17T18:28:39.973Z,3.30
2022-08-17T18:31:13.683Z,3.70
2022-08-17T18:33:45.437Z,4.25
2022-08-17T18:36:27.009Z,3.47
2022-08-17T18:39:13.158Z,3.60
2022-08-17T18:41:45.711Z,4.07
2022-08-17T18:44:26.589Z,3.63
2022-08-17T18:47:13.924Z,3.55
2022-08-17T18:49:45.099Z,3.63
2022-08-17T18:52:18.054Z,3.72
2022-08-17T18:55:03.971Z,3.40
2022-08-17T18:57:38.106Z,3.53
2022-08-17T19:00:14.491Z,3.42
2022-08-17T19:02:56.177Z,3.22
2022-08-17T19:05:34.304Z,3.08
2022-08-17T19:08:25.574Z,3.28
2022-08-17T19:10:59.770Z,2.90
2022-08-17T19:13:36.835Z,2.92
2022-08-17T19:16:15.256Z,3.20
2022-08-17T19:18:49.680Z,3.03
2022-08-17T19:21:24.559Z,3.05
2022-08-17T19:23:59.535Z,3.00
2022-08-17T19:26:50.793Z,3.35
2022-08-17T19:29:31.376Z,3.15
2022-08-17T19:32:03.942Z,3.03
2022-08-17T19:34:35.972Z,3.10
2022-08-17T19:37:11.547Z,3.20
2022-08-17T19:39:49.719Z,3.20
2022-08-17T19:42:34.864Z,3.10
2022-08-17T19:45:14.460Z,2.97
2022-08-17T19:48:04.563Z,3.13
2022-08-17T19:50:41.599Z,2.90
2022-08-17T19:53:20.880Z,3.10
2022-08-17T19:55:57.521Z,2.85
2022-08-17T19:58:40.013Z,2.95
2022-08-17T20:01:15.421Z,2.63
2022-08-17T20:03:53.546Z,2.83
2022-08-17T20:06:24.506Z,2.80
2022-08-17T20:09:00.335Z,3.03
2022-08-17T20:11:34.822Z,2.88
2022-08-17T20:14:08.836Z,2.70
2022-08-17T20:16:39.875Z,2.90
2022-08-17T20:19:30.537Z,3.47
2022-08-17T20:22:06.584Z,4.18
2022-08-17T20:24:43.266Z,3.88
2022-08-17T20:27:17.899Z,3.72
2022-08-17T20:30:08.287Z,3.60
2022-08-17T20:32:53.545Z,3.78
2022-08-17T20:35:26.772Z,3.63
2022-08-17T20:37:59.411Z,3.58
2022-08-17T20:40:35.382Z,3.80
2022-08-17T20:43:43.063Z,3.15
2022-08-17T20:46:32.366Z,3.42
2022-08-17T20:49:22.136Z,3.50
2022-08-17T20:52:01.639Z,2.80
2022-08-17T20:54:51.943Z,2.97
2022-08-17T20:57:47.481Z,3.20
2022-08-17T21:00:45.132Z,2.90
2022-08-17T21:03:51.047Z,2.65
2022-08-17T21:06:25.534Z,3.10
2022-08-17T21:09:19.508Z,2.90
2022-08-17T21:12:05.320Z,2.60
2022-08-17T21:14:43.539Z,2.85
2022-08-17T21:17:46.728Z,2.70
2022-08-17T21:20:33.297Z,2.65
2022-08-17T21:23:18.189Z,2.63
2022-08-17T21:26:14.659Z,2.58
2022-08-17T21:29:17.883Z,2.47
2022-08-17T21:32:19.009Z,2.70
2022-08-17T21:35:25.000Z,2.47
2022-08-17T21:38:00.143Z,2.75
2022-08-17T21:40:32.933Z,2.50
2022-08-17T21:43:09.237Z,2.50
2022-08-17T21:45:43.215Z,2.17
2022-08-17T21:48:16.149Z,2.28
2022-08-17T21:50:48.729Z,2.30
2022-08-17T21:53:33.072Z,2.40
2022-08-17T21:56:04.285Z,2.00
2022-08-17T21:58:35.758Z,1.85
2022-08-17T22:01:22.170Z,2.20
2022-08-17T22:03:59.333Z,2.40
2022-08-17T22:06:30.630Z,2.20
2022-08-17T22:09:02.157Z,2.28
2022-08-17T22:11:33.345Z,2.42
2022-08-17T22:14:05.779Z,2.38
2022-08-17T22:16:35.586Z,1.98
2022-08-17T22:19:06.692Z,2.10
2022-08-17T22:21:35.914Z,1.85
2022-08-17T22:24:08.104Z,2.00
2022-08-17T22:27:08.271Z,1.90
2022-08-17T22:29:57.172Z,2.00
2022-08-17T22:32:42.720Z,2.20
2022-08-17T22:35:35.107Z,2.08
2022-08-17T22:38:26.725Z,2.10
2022-08-17T22:41:14.157Z,1.92
2022-08-17T22:43:45.130Z,1.80
2022-08-17T22:46:15.255Z,1.92
2022-08-17T22:48:50.303Z,2.10
2022-08-17T22:51:23.225Z,1.60
2022-08-17T22:54:24.472Z,2.55
2022-08-17T22:57:25.285Z,1.95
2022-08-17T22:59:57.625Z,2.08
2022-08-17T23:02:29.278Z,1.70
2022-08-17T23:05:22.956Z,1.60
2022-08-17T23:07:54.076Z,1.70
2022-08-17T23:10:23.249Z,1.60
2022-08-17T23:12:53.386Z,1.63
2022-08-17T23:15:24.472Z,1.48
2022-08-17T23:17:53.852Z,1.70
2022-08-17T23:20:23.154Z,1.77
2022-08-17T23:22:53.145Z,1.90
2022-08-17T23:25:28.226Z,1.50
2022-08-17T23:28:01.765Z,1.42
2022-08-17T23:30:35.011Z,1.60
2022-08-17T23:33:07.333Z,1.70
2022-08-17T23:35:40.224Z,1.83
2022-08-17T23:38:11.328Z,1.70
2022-08-17T23:40:41.633Z,1.65
2022-08-17T23:43:23.457Z,1.30
2022-08-17T23:45:56.264Z,1.35
2022-08-17T23:48:35.016Z,1.30
2022-08-17T23:51:13.729Z,1.27
2022-08-17T23:53:47.845Z,1.40
2022-08-17T23:56:20.028Z,1.30
2022-08-17T23:58:51.445Z,1.20
